Billings, NY (12510)

11:33 PM EDT on July 24, 2016 (GMT -0400)
Hitsman Farm | | Change Station

Elev 404 ft 41.65 °N, 73.76 °W | Updated 1 minute ago

Clear
Clear
70.3 °F
Feels Like 70.3 °F
N
0.0
Wind Variable Wind from East
Gusts 0.0 mph

Today
High -- | Low -- °F
--% Chance of Precip.
Yesterday
High -- | Low -- °F
Precip. -- in
Pressure 29.95 in
Visibility 10.0 miles
Clouds Clear
Dew Point 67 °F
Humidity 88%
Rainfall 0.00 in
Snow Depth Not available.
5:42 AM 8:20 PM
Waning Gibbous, 70% visible
METAR KPOU 250253Z AUTO 00000KT 10SM CLR 24/19 A2996 RMK AO2 SLP140 T02440189 51012
Pressure 29.95 in
Visibility 10.0 miles
Clouds Clear
Dew Point 67 °F
Humidity 88%
Rainfall 0.00 in
Snow Depth Not available.
5:42 AM 8:20 PM
Waning Gibbous, 70% visible
METAR KPOU 250253Z AUTO 00000KT 10SM CLR 24/19 A2996 RMK AO2 SLP140 T02440189 51012

10-Day Weather Forecast

Almanac

Astronomy

Jul. 24, 2016 Rise Set
Actual Time
Civil Twilight
Nautical Twilight
Astronomical Twilight
Moon
Length of Visible Light
Length of Day
Tomorrow will be .
, % of the Moon is Illuminated

Today's Extremes

State Highs State Lows

Community

WunderPhotos

Upload Photos

1,927,256 photos uploaded!

WunderBlog® & News

Nearby

Air Quality

  Air Quality AQ Index Pollutant
Not available.

Snow Depth

Station Depth Elevation

Earthquake Activity

City Distance Mag. Time & Date
Minimum magnitude displayed is 2.5.

Coastal Water Temperatures

Place Temperature

Stations

Nearby Weather Stations

Station Location Temp. Windchill Dew Point Humidity Wind Precip. Elev Updated Type
                   

Watches & Warnings

There are currently no watches in effect.